createdAt,value
2019-02-21T00:02:20.943Z,8.00
2019-02-21T00:05:09.370Z,8.00
2019-02-21T00:07:57.042Z,8.00
2019-02-21T00:10:44.641Z,7.90
2019-02-21T00:13:32.855Z,7.80
2019-02-21T00:16:21.419Z,7.80
2019-02-21T00:19:09.761Z,7.70
2019-02-21T00:21:58.166Z,7.70
2019-02-21T00:24:46.414Z,7.60
2019-02-21T00:27:35.167Z,7.60
2019-02-21T00:30:23.108Z,7.50
2019-02-21T00:33:10.887Z,7.50
2019-02-21T00:35:58.614Z,7.40
2019-02-21T00:38:46.885Z,7.30
2019-02-21T00:41:35.304Z,7.30
2019-02-21T00:44:23.747Z,7.30
2019-02-21T00:47:11.803Z,7.30
2019-02-21T00:50:00.337Z,7.30
2019-02-21T00:52:48.694Z,7.30
2019-02-21T00:55:36.748Z,7.30
2019-02-21T00:58:24.940Z,7.20
2019-02-21T01:01:13.679Z,7.10
2019-02-21T01:04:01.482Z,7.10
2019-02-21T01:06:49.758Z,7.00
2019-02-21T01:09:38.243Z,7.10
2019-02-21T01:12:26.327Z,7.00
2019-02-21T01:15:14.580Z,7.00
2019-02-21T01:18:03.058Z,6.90
2019-02-21T01:20:50.944Z,6.80
2019-02-21T01:23:39.257Z,6.80
2019-02-21T01:26:27.941Z,6.70
2019-02-21T01:29:15.999Z,6.70
2019-02-21T01:32:04.527Z,6.60
2019-02-21T01:34:52.453Z,6.50
2019-02-21T01:37:40.491Z,6.40
2019-02-21T01:40:29.050Z,6.50
2019-02-21T01:43:16.899Z,6.50
2019-02-21T01:46:05.204Z,6.60
2019-02-21T01:48:53.456Z,6.40
2019-02-21T01:51:41.859Z,6.40
2019-02-21T01:54:29.877Z,6.40
2019-02-21T01:57:18.158Z,6.50
2019-02-21T02:00:06.852Z,6.30
2019-02-21T02:02:54.771Z,6.20
2019-02-21T02:05:43.243Z,6.20
2019-02-21T02:08:31.990Z,6.00
2019-02-21T02:11:19.782Z,5.90
2019-02-21T02:14:08.026Z,5.90
2019-02-21T02:16:56.413Z,6.00
2019-02-21T02:19:44.807Z,5.90
2019-02-21T02:22:33.027Z,5.80
2019-02-21T02:25:21.699Z,5.70
2019-02-21T02:28:09.912Z,5.60
2019-02-21T02:30:58.011Z,5.60
2019-02-21T02:33:46.507Z,5.60
2019-02-21T02:36:35.280Z,5.60
2019-02-21T02:39:23.468Z,5.60
2019-02-21T02:42:12.246Z,5.60
2019-02-21T02:45:01.054Z,5.70
2019-02-21T02:47:49.607Z,5.80
2019-02-21T02:50:37.778Z,6.00
2019-02-21T02:53:25.754Z,6.20
2019-02-21T02:56:13.479Z,6.30
2019-02-21T02:59:01.691Z,6.40
2019-02-21T03:01:50.083Z,6.50
2019-02-21T03:04:38.704Z,6.50
2019-02-21T03:07:26.434Z,6.50
2019-02-21T03:10:14.850Z,6.60
2019-02-21T03:13:02.754Z,6.70
2019-02-21T03:15:50.206Z,6.70
2019-02-21T03:18:38.437Z,6.70
2019-02-21T03:21:27.039Z,6.70
2019-02-21T03:24:14.570Z,6.70
2019-02-21T03:27:02.960Z,6.80
2019-02-21T03:29:51.258Z,6.80
2019-02-21T03:32:39.513Z,6.80
2019-02-21T03:35:27.739Z,6.80
2019-02-21T03:38:15.740Z,6.80
2019-02-21T03:41:04.143Z,6.80
2019-02-21T03:43:52.639Z,6.80
2019-02-21T03:46:40.975Z,6.70
2019-02-21T03:49:28.616Z,6.70
2019-02-21T03:52:16.395Z,6.60
2019-02-21T03:55:04.675Z,6.60
2019-02-21T03:57:53.135Z,6.50
2019-02-21T04:00:41.435Z,6.40
2019-02-21T04:03:29.763Z,6.50
2019-02-21T04:06:17.917Z,6.50
2019-02-21T04:09:08.595Z,6.40
2019-02-21T04:11:57.170Z,6.40
2019-02-21T04:14:45.604Z,6.40
2019-02-21T04:17:33.607Z,6.40
2019-02-21T04:20:22.319Z,6.40
2019-02-21T04:23:10.861Z,6.40
2019-02-21T04:25:58.944Z,6.40
2019-02-21T04:28:47.149Z,6.30
2019-02-21T04:31:35.542Z,6.30
2019-02-21T04:34:23.578Z,6.30
2019-02-21T04:37:11.915Z,6.30
2019-02-21T04:40:00.326Z,6.30
2019-02-21T04:42:48.746Z,6.10
2019-02-21T04:45:37.487Z,6.00
2019-02-21T04:48:26.104Z,5.90
2019-02-21T04:51:14.249Z,5.70
2019-02-21T04:54:02.704Z,5.70
2019-02-21T04:56:50.698Z,5.80
2019-02-21T04:59:39.099Z,5.80
2019-02-21T05:02:29.568Z,5.90
2019-02-21T05:05:16.815Z,6.00
2019-02-21T05:08:04.973Z,6.00
2019-02-21T05:10:53.047Z,6.20
2019-02-21T05:13:41.333Z,6.20
2019-02-21T05:16:29.475Z,6.30
2019-02-21T05:19:17.879Z,6.30
2019-02-21T05:22:06.076Z,6.30
2019-02-21T05:24:53.643Z,6.30
2019-02-21T05:27:56.130Z,6.30
2019-02-21T05:30:44.278Z,6.30
2019-02-21T05:33:50.594Z,6.30
2019-02-21T05:36:59.847Z,6.30
2019-02-21T05:39:58.170Z,6.30
2019-02-21T05:42:53.072Z,6.30
2019-02-21T05:45:59.135Z,6.30
2019-02-21T05:49:11.911Z,6.30
2019-02-21T05:52:08.127Z,6.40
2019-02-21T05:55:03.645Z,6.40
2019-02-21T05:57:59.975Z,6.30
2019-02-21T06:01:03.141Z,6.30
2019-02-21T06:04:09.596Z,6.30
2019-02-21T06:07:09.975Z,6.30
2019-02-21T06:10:07.682Z,6.30
2019-02-21T06:13:04.335Z,6.30
2019-02-21T06:16:10.066Z,6.10
2019-02-21T06:19:16.827Z,5.90
2019-02-21T06:22:23.648Z,5.80
2019-02-21T06:25:29.774Z,5.70
2019-02-21T06:28:22.520Z,5.70
2019-02-21T06:31:13.784Z,5.70
2019-02-21T06:34:01.551Z,5.60
2019-02-21T06:36:49.466Z,5.60
2019-02-21T06:39:37.729Z,5.50
2019-02-21T06:42:25.934Z,5.40
2019-02-21T06:45:14.142Z,5.30
2019-02-21T06:48:02.655Z,5.20
2019-02-21T06:50:51.007Z,5.30
2019-02-21T06:53:39.367Z,5.50
2019-02-21T06:56:27.379Z,5.60
2019-02-21T06:59:15.502Z,5.80
2019-02-21T07:02:04.387Z,6.00
2019-02-21T07:04:52.083Z,6.10
2019-02-21T07:07:40.799Z,6.20
2019-02-21T07:10:29.283Z,6.30
2019-02-21T07:13:26.032Z,6.40
2019-02-21T07:16:06.965Z,6.50
2019-02-21T07:18:54.571Z,6.60
2019-02-21T07:21:43.256Z,6.70
2019-02-21T07:24:31.995Z,6.80
2019-02-21T07:27:20.211Z,6.90
2019-02-21T07:30:19.282Z,7.00
2019-02-21T07:32:59.636Z,7.10
2019-02-21T07:35:48.219Z,7.50
2019-02-21T07:38:36.663Z,7.90
2019-02-21T07:41:24.955Z,7.80
2019-02-21T07:44:13.150Z,7.60
2019-02-21T07:47:01.291Z,7.60
2019-02-21T07:49:50.232Z,7.60
2019-02-21T07:52:38.695Z,8.00
2019-02-21T07:55:26.859Z,8.50
2019-02-21T07:58:15.351Z,8.60
2019-02-21T08:01:03.791Z,8.60
2019-02-21T08:03:51.716Z,8.70
2019-02-21T08:06:39.963Z,8.80
2019-02-21T08:09:31.184Z,8.90
2019-02-21T08:12:19.818Z,9.20
2019-02-21T08:15:11.797Z,9.70
2019-02-21T08:17:58.551Z,9.70
2019-02-21T08:20:46.091Z,9.70
2019-02-21T08:23:34.267Z,9.90
2019-02-21T08:26:22.264Z,9.80
2019-02-21T08:29:10.259Z,9.70
2019-02-21T08:31:58.511Z,9.60
2019-02-21T08:34:49.403Z,9.50
2019-02-21T08:37:37.902Z,9.90
2019-02-21T08:40:26.463Z,10.10
2019-02-21T08:43:14.903Z,9.90
2019-02-21T08:46:03.340Z,9.70
2019-02-21T08:48:52.015Z,9.60
2019-02-21T08:51:39.839Z,9.50
2019-02-21T08:54:28.317Z,9.50
2019-02-21T08:57:20.660Z,9.60
2019-02-21T09:00:07.431Z,9.60
2019-02-21T09:02:55.273Z,9.70
2019-02-21T09:05:43.368Z,9.90
2019-02-21T09:08:35.068Z,10.10
2019-02-21T09:11:22.515Z,10.10
2019-02-21T09:14:10.316Z,9.90
2019-02-21T09:16:58.501Z,9.80
2019-02-21T09:19:46.474Z,9.70
2019-02-21T09:22:34.431Z,9.70
2019-02-21T09:25:22.979Z,9.80
2019-02-21T09:28:10.915Z,10.00
2019-02-21T09:30:58.980Z,10.10
2019-02-21T09:33:47.275Z,10.20
2019-02-21T09:36:35.010Z,10.20
2019-02-21T09:39:26.635Z,10.20
2019-02-21T09:42:14.197Z,10.10
2019-02-21T09:45:02.068Z,10.30
2019-02-21T09:47:50.291Z,10.60
2019-02-21T09:50:38.563Z,10.70
2019-02-21T09:53:26.599Z,10.60
2019-02-21T09:56:15.115Z,10.50
2019-02-21T09:59:14.027Z,10.50
2019-02-21T10:02:01.957Z,10.60
2019-02-21T10:04:49.543Z,10.70
2019-02-21T10:07:37.274Z,10.90
2019-02-21T10:10:25.727Z,11.10
2019-02-21T10:13:14.359Z,11.30
2019-02-21T10:16:04.810Z,11.30
2019-02-21T10:18:52.774Z,11.10
2019-02-21T10:21:40.804Z,10.80
2019-02-21T10:24:29.393Z,10.70
2019-02-21T10:27:17.883Z,10.70
2019-02-21T10:30:07.187Z,10.80
2019-02-21T10:32:55.021Z,10.90
2019-02-21T10:35:42.813Z,11.00
2019-02-21T10:38:31.136Z,11.30
2019-02-21T10:41:19.089Z,11.50
2019-02-21T10:44:07.035Z,11.60
2019-02-21T10:46:55.632Z,11.70
2019-02-21T10:49:44.341Z,12.50
2019-02-21T10:52:31.952Z,14.00
2019-02-21T10:55:20.578Z,15.20
2019-02-21T10:58:08.664Z,16.10
2019-02-21T11:00:56.864Z,17.40
2019-02-21T11:03:45.000Z,17.50
2019-02-21T11:06:33.575Z,16.90
2019-02-21T11:09:22.871Z,15.50
2019-02-21T11:12:11.219Z,14.80
2019-02-21T11:14:58.736Z,14.00
2019-02-21T11:17:46.782Z,14.20
2019-02-21T11:20:35.432Z,14.90
2019-02-21T11:23:23.384Z,15.00
2019-02-21T11:26:11.128Z,14.90
2019-02-21T11:28:59.739Z,14.80
2019-02-21T11:31:47.596Z,14.70
2019-02-21T11:34:38.039Z,14.20
2019-02-21T11:37:25.399Z,14.20
2019-02-21T11:40:14.570Z,14.20
2019-02-21T11:43:02.807Z,14.10
2019-02-21T11:45:55.233Z,13.90
2019-02-21T11:48:41.644Z,13.70
2019-02-21T11:51:29.705Z,14.20
2019-02-21T11:54:26.543Z,14.80
2019-02-21T11:57:07.078Z,15.00
2019-02-21T11:59:55.368Z,14.80
2019-02-21T12:02:43.544Z,14.10
2019-02-21T12:05:32.291Z,13.80
2019-02-21T12:08:20.792Z,13.30
2019-02-21T12:11:08.751Z,13.00
2019-02-21T12:13:57.556Z,13.00
2019-02-21T12:16:45.328Z,13.10
2019-02-21T12:19:33.372Z,13.20
2019-02-21T12:22:22.308Z,15.20
2019-02-21T12:25:12.200Z,16.40
2019-02-21T12:28:00.896Z,17.20
2019-02-21T12:30:49.179Z,18.70
2019-02-21T12:33:36.852Z,19.70
2019-02-21T12:36:24.849Z,20.30
2019-02-21T12:39:13.037Z,20.30
2019-02-21T12:42:01.220Z,20.20
2019-02-21T12:44:49.212Z,19.30
2019-02-21T12:47:37.024Z,18.50
2019-02-21T12:50:25.514Z,17.50
2019-02-21T12:53:13.433Z,16.30
2019-02-21T12:56:01.685Z,15.40
2019-02-21T12:58:49.493Z,15.30
2019-02-21T13:01:37.504Z,15.20
2019-02-21T13:04:25.800Z,14.70
2019-02-21T13:07:13.791Z,14.80
2019-02-21T13:10:01.362Z,14.40
2019-02-21T13:12:49.471Z,14.20
2019-02-21T13:15:37.710Z,14.20
2019-02-21T13:18:26.598Z,13.90
2019-02-21T13:21:15.110Z,13.70
2019-02-21T13:24:03.114Z,13.60
2019-02-21T13:26:51.688Z,13.60
2019-02-21T13:29:39.711Z,13.80
2019-02-21T13:32:27.933Z,13.90
2019-02-21T13:35:15.987Z,14.30
2019-02-21T13:38:04.607Z,14.30
2019-02-21T13:40:52.766Z,13.90
2019-02-21T13:43:41.021Z,13.90
2019-02-21T13:46:36.793Z,13.90
2019-02-21T13:49:18.890Z,14.00
2019-02-21T13:52:07.387Z,13.70
2019-02-21T13:54:54.964Z,13.60
2019-02-21T13:57:43.566Z,13.50
2019-02-21T14:00:31.921Z,13.40
2019-02-21T14:03:20.366Z,13.50
2019-02-21T14:06:08.318Z,13.40
2019-02-21T14:08:55.828Z,13.60
2019-02-21T14:11:44.363Z,13.40
2019-02-21T14:14:32.495Z,13.50
2019-02-21T14:17:20.771Z,13.50
2019-02-21T14:20:09.232Z,13.50
2019-02-21T14:22:57.673Z,13.60
2019-02-21T14:25:46.164Z,13.70
2019-02-21T14:28:37.316Z,13.70
2019-02-21T14:31:24.622Z,13.70
2019-02-21T14:34:12.852Z,13.80
2019-02-21T14:37:01.361Z,13.80
2019-02-21T14:39:50.025Z,14.00
2019-02-21T14:42:38.547Z,14.00
2019-02-21T14:45:26.807Z,13.90
2019-02-21T14:48:15.191Z,13.90
2019-02-21T14:51:02.763Z,13.80
2019-02-21T14:53:51.292Z,13.80
2019-02-21T14:56:39.799Z,13.80
2019-02-21T14:59:27.981Z,13.70
2019-02-21T15:02:16.460Z,13.50
2019-02-21T15:05:04.189Z,13.40
2019-02-21T15:07:52.861Z,13.40
2019-02-21T15:10:40.410Z,13.30
2019-02-21T15:13:28.827Z,13.40
2019-02-21T15:16:16.670Z,13.50
2019-02-21T15:19:05.239Z,13.40
2019-02-21T15:21:53.277Z,13.30
2019-02-21T15:24:41.190Z,13.30
2019-02-21T15:27:29.681Z,13.20
2019-02-21T15:30:18.787Z,13.10
2019-02-21T15:33:07.354Z,13.00
2019-02-21T15:35:55.315Z,12.90
2019-02-21T15:38:43.643Z,12.80
2019-02-21T15:41:31.228Z,12.80
2019-02-21T15:44:19.587Z,12.80
2019-02-21T15:47:07.898Z,12.70
2019-02-21T15:49:56.208Z,12.60
2019-02-21T15:52:44.846Z,12.60
2019-02-21T15:55:32.657Z,12.60
2019-02-21T15:58:20.853Z,12.60
2019-02-21T16:01:08.492Z,12.50
2019-02-21T16:03:56.961Z,12.40
2019-02-21T16:06:50.967Z,12.40
2019-02-21T16:09:34.756Z,12.40
2019-02-21T16:12:23.345Z,12.40
2019-02-21T16:15:12.216Z,12.40
2019-02-21T16:18:00.034Z,12.40
2019-02-21T16:20:48.020Z,12.30
2019-02-21T16:23:36.420Z,12.30
2019-02-21T16:26:23.912Z,12.20
2019-02-21T16:29:11.995Z,12.30
2019-02-21T16:31:59.704Z,12.20
2019-02-21T16:34:47.522Z,12.20
2019-02-21T16:37:35.959Z,12.20
2019-02-21T16:40:24.033Z,12.20
2019-02-21T16:43:11.640Z,12.20
2019-02-21T16:46:07.419Z,12.10
2019-02-21T16:48:50.006Z,12.10
2019-02-21T16:51:38.314Z,12.10
2019-02-21T16:54:26.926Z,12.10
2019-02-21T16:57:15.255Z,12.20
2019-02-21T17:00:03.631Z,12.10
2019-02-21T17:02:52.246Z,12.00
2019-02-21T17:05:40.094Z,12.10
2019-02-21T17:08:28.729Z,12.00
2019-02-21T17:11:16.899Z,12.00
2019-02-21T17:14:05.679Z,12.00
2019-02-21T17:16:54.073Z,12.00
2019-02-21T17:19:42.267Z,12.00
2019-02-21T17:22:30.267Z,12.00
2019-02-21T17:25:18.500Z,12.00
2019-02-21T17:28:06.417Z,12.00
2019-02-21T17:30:54.296Z,11.90
2019-02-21T17:33:42.399Z,11.90
2019-02-21T17:36:32.683Z,12.00
2019-02-21T17:39:20.534Z,11.90
2019-02-21T17:42:08.609Z,11.90
2019-02-21T17:44:57.143Z,11.90
2019-02-21T17:47:45.031Z,11.90
2019-02-21T17:50:32.811Z,11.90
2019-02-21T17:53:20.803Z,11.90
2019-02-21T17:56:08.553Z,11.90
2019-02-21T17:58:56.739Z,11.90
2019-02-21T18:01:44.360Z,11.90
2019-02-21T18:04:33.871Z,11.90
2019-02-21T18:07:21.900Z,11.80
2019-02-21T18:10:12.319Z,11.90
2019-02-21T18:13:00.269Z,11.80
2019-02-21T18:15:48.699Z,11.80
2019-02-21T18:18:36.915Z,11.80
2019-02-21T18:21:25.166Z,11.80
2019-02-21T18:24:13.510Z,11.80
2019-02-21T18:27:01.790Z,11.80
2019-02-21T18:29:50.047Z,11.80
2019-02-21T18:32:38.283Z,11.70
2019-02-21T18:35:26.438Z,11.80
2019-02-21T18:38:14.945Z,11.80
2019-02-21T18:41:03.127Z,11.70
2019-02-21T18:43:51.414Z,11.70
2019-02-21T18:46:39.556Z,11.70
2019-02-21T18:49:27.790Z,11.70
2019-02-21T18:52:15.828Z,11.70
2019-02-21T18:55:04.396Z,11.60
2019-02-21T18:57:52.956Z,11.60
2019-02-21T19:00:41.265Z,11.50
2019-02-21T19:03:28.912Z,11.50
2019-02-21T19:06:17.111Z,11.50
2019-02-21T19:09:07.151Z,11.60
2019-02-21T19:11:54.963Z,11.50
2019-02-21T19:14:43.767Z,11.40
2019-02-21T19:17:31.511Z,11.30
2019-02-21T19:20:20.113Z,11.30
2019-02-21T19:23:08.600Z,11.20
2019-02-21T19:25:56.820Z,11.20
2019-02-21T19:28:45.305Z,11.10
2019-02-21T19:31:33.844Z,11.20
2019-02-21T19:34:22.003Z,11.10
2019-02-21T19:37:10.743Z,11.10
2019-02-21T19:39:58.736Z,11.00
2019-02-21T19:42:46.757Z,10.80
2019-02-21T19:45:35.047Z,10.70
2019-02-21T19:48:23.102Z,10.70
2019-02-21T19:51:11.339Z,10.60
2019-02-21T19:53:59.419Z,10.70
2019-02-21T19:56:48.219Z,10.70
2019-02-21T19:59:36.726Z,10.60
2019-02-21T20:02:25.051Z,10.60
2019-02-21T20:05:13.396Z,10.70
2019-02-21T20:08:08.252Z,10.70
2019-02-21T20:10:51.190Z,10.70
2019-02-21T20:13:39.370Z,10.60
2019-02-21T20:16:28.309Z,10.60
2019-02-21T20:19:16.446Z,10.60
2019-02-21T20:22:04.476Z,10.50
2019-02-21T20:24:52.575Z,10.50
2019-02-21T20:27:40.574Z,10.50
2019-02-21T20:30:28.993Z,10.50
2019-02-21T20:33:17.430Z,10.50
2019-02-21T20:36:05.614Z,10.50
2019-02-21T20:38:54.167Z,10.50
2019-02-21T20:41:42.590Z,10.40
2019-02-21T20:44:30.583Z,10.50
2019-02-21T20:47:18.692Z,10.40
2019-02-21T20:50:07.167Z,10.30
2019-02-21T20:52:55.026Z,10.40
2019-02-21T20:55:44.056Z,10.30
2019-02-21T20:58:32.729Z,10.30
2019-02-21T21:01:21.427Z,10.30
2019-02-21T21:04:09.467Z,10.20
2019-02-21T21:06:57.440Z,10.20
2019-02-21T21:09:45.682Z,10.20
2019-02-21T21:12:33.331Z,10.20
2019-02-21T21:15:21.638Z,10.20
2019-02-21T21:18:10.192Z,10.20
2019-02-21T21:20:58.636Z,10.30
2019-02-21T21:23:46.737Z,10.30
2019-02-21T21:26:35.196Z,10.20
2019-02-21T21:29:23.584Z,10.20
2019-02-21T21:32:11.300Z,10.20
2019-02-21T21:34:59.876Z,10.20
2019-02-21T21:37:48.012Z,10.20
2019-02-21T21:40:36.888Z,10.20
2019-02-21T21:43:24.939Z,10.20
2019-02-21T21:46:12.680Z,10.20
2019-02-21T21:49:01.204Z,10.20
2019-02-21T21:51:49.448Z,10.10
2019-02-21T21:54:38.041Z,10.10
2019-02-21T21:57:26.568Z,10.10
2019-02-21T22:00:18.114Z,10.00
2019-02-21T22:03:06.476Z,10.00
2019-02-21T22:05:54.213Z,10.10
2019-02-21T22:08:42.423Z,10.00
2019-02-21T22:11:30.955Z,10.00
2019-02-21T22:14:19.039Z,10.00
2019-02-21T22:17:07.336Z,10.00
2019-02-21T22:19:55.535Z,10.00
2019-02-21T22:22:44.192Z,10.00
2019-02-21T22:25:32.271Z,10.00
2019-02-21T22:28:20.559Z,10.00
2019-02-21T22:31:09.163Z,10.00
2019-02-21T22:33:57.609Z,10.00
2019-02-21T22:36:46.159Z,10.00
2019-02-21T22:39:34.085Z,10.00
2019-02-21T22:42:22.740Z,10.00
2019-02-21T22:45:11.700Z,10.00
2019-02-21T22:48:00.319Z,10.00
2019-02-21T22:50:48.467Z,10.00
2019-02-21T22:53:36.936Z,10.00
2019-02-21T22:56:24.906Z,10.00
2019-02-21T22:59:12.787Z,10.00
2019-02-21T23:02:01.212Z,10.00
2019-02-21T23:05:27.720Z,10.00
2019-02-21T23:08:43.342Z,9.90
2019-02-21T23:11:32.091Z,10.00
2019-02-21T23:14:20.176Z,10.00
2019-02-21T23:17:08.460Z,10.00
2019-02-21T23:23:38.203Z,9.90
2019-02-21T23:26:28.634Z,10.00
2019-02-21T23:29:16.171Z,10.00
2019-02-21T23:32:04.939Z,9.90
2019-02-21T23:34:55.029Z,10.00
2019-02-21T23:37:43.235Z,10.00
2019-02-21T23:40:31.168Z,10.00
2019-02-21T23:43:19.815Z,9.90
2019-02-21T23:46:07.979Z,9.90
2019-02-21T23:48:56.588Z,9.80
2019-02-21T23:51:45.007Z,9.80
2019-02-21T23:54:32.632Z,9.90
2019-02-21T23:57:20.208Z,9.90
